createdAt,value
2022-10-19T00:10:00.569Z,1.90
2022-10-19T00:20:08.799Z,1.52
2022-10-19T00:30:16.549Z,1.65
2022-10-19T00:40:24.997Z,1.83
2022-10-19T00:50:33.721Z,1.75
2022-10-19T01:00:40.846Z,1.85
2022-10-19T01:10:55.198Z,2.53
2022-10-19T01:21:30.585Z,2.55
2022-10-19T01:31:49.175Z,2.72
2022-10-19T01:42:05.717Z,2.00
2022-10-19T01:52:14.837Z,1.95
2022-10-19T02:02:25.388Z,1.40
2022-10-19T02:12:40.681Z,1.65
2022-10-19T02:22:45.398Z,1.15
2022-10-19T02:32:51.149Z,1.58
2022-10-19T02:43:00.841Z,2.33
2022-10-19T02:53:05.291Z,1.70
2022-10-19T03:03:15.209Z,1.50
2022-10-19T03:13:19.481Z,2.38
2022-10-19T03:23:25.428Z,1.80
2022-10-19T03:33:32.699Z,1.95
2022-10-19T03:43:40.894Z,1.58
2022-10-19T03:53:46.981Z,1.65
2022-10-19T04:03:55.342Z,1.35
2022-10-19T04:14:03.575Z,1.85
2022-10-19T04:24:12.891Z,1.05
2022-10-19T04:34:17.983Z,2.33
2022-10-19T04:44:25.177Z,1.75
2022-10-19T04:54:32.694Z,1.30
2022-10-19T05:04:35.481Z,2.00
2022-10-19T05:14:44.947Z,2.10
2022-10-19T05:24:55.875Z,1.30
2022-10-19T05:35:08.983Z,1.98
2022-10-19T05:45:11.979Z,2.30
2022-10-19T05:55:16.517Z,1.35
2022-10-19T06:05:19.693Z,1.83
2022-10-19T06:15:26.308Z,1.40
2022-10-19T06:25:30.386Z,1.65
2022-10-19T06:35:38.928Z,1.48
2022-10-19T06:45:47.727Z,1.80
2022-10-19T06:55:54.386Z,4.28
2022-10-19T07:06:13.988Z,1.25
2022-10-19T07:16:21.870Z,1.08
2022-10-19T07:26:38.090Z,0.93
2022-10-19T07:36:49.965Z,1.80
2022-10-19T07:46:56.455Z,1.70
2022-10-19T07:57:03.094Z,0.90
2022-10-19T08:07:06.162Z,1.10
2022-10-19T08:17:17.021Z,1.48
2022-10-19T08:27:20.751Z,1.13
2022-10-19T08:37:45.194Z,1.85
2022-10-19T08:48:08.956Z,3.78
2022-10-19T08:58:26.565Z,1.80
2022-10-19T09:08:37.506Z,2.22
2022-10-19T09:18:44.811Z,3.22
2022-10-19T09:28:53.935Z,2.47
2022-10-19T09:39:00.797Z,2.72
2022-10-19T09:49:06.696Z,3.45
2022-10-19T09:59:25.768Z,2.15
2022-10-19T10:09:33.108Z,4.80
2022-10-19T10:19:51.931Z,4.20
2022-10-19T10:40:31.380Z,2.85
2022-10-19T10:50:43.126Z,4.85
2022-10-19T11:01:05.256Z,4.28
2022-10-19T11:11:20.995Z,3.30
2022-10-19T11:21:38.919Z,4.18
2022-10-19T11:31:48.831Z,5.30
2022-10-19T11:42:03.828Z,3.50
2022-10-19T11:52:20.727Z,3.10
2022-10-19T12:02:53.457Z,3.05
2022-10-19T12:23:37.381Z,4.03
2022-10-19T12:33:49.492Z,1.80
2022-10-19T12:54:45.009Z,2.55
2022-10-19T13:04:58.957Z,1.88
2022-10-19T13:15:03.269Z,3.30
2022-10-19T13:25:29.030Z,2.40
2022-10-19T13:35:36.088Z,3.33
2022-10-19T13:46:11.483Z,2.40
2022-10-19T13:56:33.306Z,2.30
2022-10-19T14:06:45.147Z,3.53
2022-10-19T14:16:52.979Z,3.67
2022-10-19T14:27:03.122Z,3.83
2022-10-19T14:37:13.783Z,5.55
2022-10-19T14:47:30.964Z,6.60
2022-10-19T14:57:37.370Z,5.93
2022-10-19T15:07:43.662Z,4.53
2022-10-19T15:17:57.111Z,4.50
2022-10-19T15:28:39.071Z,5.90
2022-10-19T15:38:46.318Z,3.30
2022-10-19T15:48:57.297Z,4.90
2022-10-19T15:59:06.882Z,3.53
2022-10-19T16:30:07.152Z,3.42
2022-10-19T16:40:13.264Z,2.53
2022-10-19T16:50:22.156Z,3.78
2022-10-19T17:00:27.049Z,3.10
2022-10-19T17:10:32.782Z,2.70
2022-10-19T17:20:38.734Z,2.83
2022-10-19T17:31:14.780Z,2.13
2022-10-19T17:41:23.200Z,2.67
2022-10-19T17:51:35.496Z,3.05
2022-10-19T18:01:55.202Z,2.92
2022-10-19T18:12:19.343Z,2.63
2022-10-19T18:22:27.990Z,2.95
2022-10-19T18:32:36.367Z,2.67
2022-10-19T18:42:45.064Z,2.10
2022-10-19T18:53:17.735Z,2.13
2022-10-19T19:03:26.333Z,2.53
2022-10-19T19:13:42.196Z,3.30
2022-10-19T19:23:48.252Z,2.92
2022-10-19T19:33:57.549Z,3.75
2022-10-19T19:44:00.587Z,3.38
2022-10-19T19:54:11.435Z,4.13
2022-10-19T20:04:20.405Z,2.90
2022-10-19T20:14:24.946Z,4.97
2022-10-19T20:24:31.975Z,3.67
2022-10-19T20:34:38.748Z,3.47
2022-10-19T20:44:48.165Z,3.17
2022-10-19T20:54:52.819Z,4.13
2022-10-19T21:05:02.125Z,4.53
2022-10-19T21:15:11.404Z,3.53
2022-10-19T21:25:14.392Z,2.85
2022-10-19T21:45:38.973Z,2.10
2022-10-19T22:16:26.676Z,3.38
2022-10-19T22:57:34.234Z,3.15
2022-10-19T23:07:38.495Z,1.70
2022-10-19T23:17:43.345Z,1.98
2022-10-19T23:48:30.141Z,3.03
2022-10-19T23:58:34.871Z,1.63
